Date,TemperatureHighF,TemperatureAvgF,TemperatureLowF,DewpointHighF,DewpointAvgF,DewpointLowF,HumidityHigh,HumidityAvg,HumidityLow,PressureMaxIn,PressureMinIn,WindSpeedMaxMPH,WindSpeedAvgMPH,GustSpeedMaxMPH,PrecipitationSumIn
2013-10-6,73,70,68,70,68,67,98,94,90,30.02,29.99,8,2,14,0.00
2013-10-7,79,69,60,72,66,56,98,91,75,30.00,29.78,27,3,27,0.22
2013-10-8,66,58,52,56,49,47,88,73,50,30.29,29.99,15,2,15,0.00
2013-10-9,62,59,54,54,51,46,84,74,62,30.34,30.23,24,6,24,0.00
2013-10-10,62,60,56,60,57,52,97,91,76,30.24,30.00,21,6,21,0.38
2013-10-11,64,62,60,62,61,59,98,94,87,30.03,29.95,22,7,22,0.62
2013-10-12,68,63,60,60,57,52,94,80,67,30.23,30.01,26,7,26,0.06
2013-10-13,64,60,57,57,53,50,89,79,68,30.35,30.22,24,6,24,0.00
2013-10-14,64,56,48,55,51,46,97,84,65,30.33,30.24,12,1,12,0.00
2013-10-15,68,55,45,58,50,44,98,84,51,30.25,30.08,13,2,13,0.00
2013-10-16,67,60,50,61,58,50,98,92,79,30.09,29.93,12,1,12,0.00
2013-10-17,72,64,60,65,62,59,98,91,76,29.92,29.69,11,1,11,0.00
2013-10-18,67,60,48,64,50,43,95,70,50,29.98,29.69,27,6,27,0.01
2013-10-19,64,53,41,57,48,40,97,84,64,29.99,29.76,14,0,14,0.08
2013-10-20,62,53,43,56,44,37,95,72,42,30.08,29.76,20,4,20,0.00
2013-10-21,67,52,39,48,42,38,97,73,39,30.15,29.98,20,1,20,0.00
2013-10-22,70,55,44,54,48,39,98,78,51,29.98,29.75,21,2,21,0.00
2013-10-23,53,48,42,50,42,38,94,82,68,29.81,29.59,13,2,13,0.09
2013-10-24,55,44,36,39,34,30,94,70,44,30.03,29.76,20,4,23,0.00
2013-10-25,54,43,35,38,34,30,89,71,47,30.24,30.03,21,4,21,0.00
2013-10-26,56,44,31,38,34,29,95,69,40,30.24,29.91,13,1,17,0.00
2013-10-27,58,48,38,39,36,34,89,65,42,30.13,29.87,16,3,23,0.00
2013-10-28,62,46,32,43,37,30,95,73,44,30.29,30.12,17,1,17,0.00
2013-10-29,57,47,40,46,41,37,94,80,62,30.38,30.29,13,2,13,0.00
2013-10-30,57,48,38,55,46,37,98,94,86,30.34,30.18,6,0,6,0.02
2013-10-31,70,62,52,63,58,51,98,87,74,30.22,29.81,14,1,16,0.02